sensor_id;sensor_type;location;lat;lon;timestamp;pressure;altitude;pressure_sealevel;temperature;humidity
63194;BME280;49289;51.670;5.624;2023-01-09T00:01:38;99544.59;;;13.44;62.12
63194;BME280;49289;51.670;5.624;2023-01-09T00:03:23;99558.03;;;13.76;62.20
63194;BME280;49289;51.670;5.624;2023-01-09T00:05:12;99535.18;;;13.97;61.11
63194;BME280;49289;51.670;5.624;2023-01-09T00:06:59;99550.77;;;13.99;61.21
63194;BME280;49289;51.670;5.624;2023-01-09T00:08:46;99542.14;;;13.79;61.61
63194;BME280;49289;51.670;5.624;2023-01-09T00:10:33;99553.16;;;13.76;61.52
63194;BME280;49289;51.670;5.624;2023-01-09T00:12:20;99537.54;;;13.68;61.14
63194;BME280;49289;51.670;5.624;2023-01-09T00:14:07;99538.42;;;13.78;61.38
63194;BME280;49289;51.670;5.624;2023-01-09T00:15:54;99553.05;;;13.91;60.73
63194;BME280;49289;51.670;5.624;2023-01-09T00:17:26;99537.64;;;13.72;61.10
63194;BME280;49289;51.670;5.624;2023-01-09T00:19:13;99533.24;;;13.29;62.12
63194;BME280;49289;51.670;5.624;2023-01-09T00:21:01;99544.77;;;13.45;61.72
63194;BME280;49289;51.670;5.624;2023-01-09T00:22:49;99540.72;;;13.45;61.39
63194;BME280;49289;51.670;5.624;2023-01-09T00:24:36;99542.59;;;12.88;62.28
63194;BME280;49289;51.670;5.624;2023-01-09T00:26:23;99550.12;;;12.59;63.22
63194;BME280;49289;51.670;5.624;2023-01-09T00:28:10;99555.05;;;12.91;63.15
63194;BME280;49289;51.670;5.624;2023-01-09T00:29:58;99569.75;;;12.97;62.48
63194;BME280;49289;51.670;5.624;2023-01-09T00:31:46;99567.03;;;12.56;63.72
63194;BME280;49289;51.670;5.624;2023-01-09T00:33:36;99551.42;;;12.50;64.27
63194;BME280;49289;51.670;5.624;2023-01-09T00:35:23;99568.88;;;12.79;63.35
63194;BME280;49289;51.670;5.624;2023-01-09T00:37:09;99570.95;;;12.93;62.77
63194;BME280;49289;51.670;5.624;2023-01-09T00:38:56;99547.00;;;12.60;63.43
63194;BME280;49289;51.670;5.624;2023-01-09T00:40:43;99572.20;;;12.36;64.22
63194;BME280;49289;51.670;5.624;2023-01-09T00:42:32;99573.83;;;12.72;63.69
63194;BME280;49289;51.670;5.624;2023-01-09T00:44:20;99575.23;;;12.59;64.03
63194;BME280;49289;51.670;5.624;2023-01-09T00:46:07;99552.52;;;12.41;63.61
63194;BME280;49289;51.670;5.624;2023-01-09T00:47:55;99552.03;;;12.65;63.31
63194;BME280;49289;51.670;5.624;2023-01-09T00:49:41;99566.81;;;13.04;62.75
63194;BME280;49289;51.670;5.624;2023-01-09T00:51:28;99555.96;;;12.71;62.85
63194;BME280;49289;51.670;5.624;2023-01-09T00:53:18;99555.40;;;12.27;64.30
63194;BME280;49289;51.670;5.624;2023-01-09T00:55:04;99573.75;;;12.06;64.66
63194;BME280;49289;51.670;5.624;2023-01-09T00:56:51;99581.58;;;12.36;64.44
63194;BME280;49289;51.670;5.624;2023-01-09T00:58:38;99580.28;;;12.24;64.49
63194;BME280;49289;51.670;5.624;2023-01-09T01:00:26;99559.61;;;12.06;64.24
63194;BME280;49289;51.670;5.624;2023-01-09T01:02:14;99570.09;;;12.09;64.79
63194;BME280;49289;51.670;5.624;2023-01-09T01:04:02;99591.67;;;12.52;63.33
63194;BME280;49289;51.670;5.624;2023-01-09T01:05:50;99587.55;;;12.44;63.57
63194;BME280;49289;51.670;5.624;2023-01-09T01:07:38;99592.71;;;12.42;63.81
63194;BME280;49289;51.670;5.624;2023-01-09T01:09:26;99574.28;;;12.38;63.50
63194;BME280;49289;51.670;5.624;2023-01-09T01:11:15;99594.94;;;12.39;63.65
63194;BME280;49289;51.670;5.624;2023-01-09T01:13:02;99596.24;;;12.55;62.59
63194;BME280;49289;51.670;5.624;2023-01-09T01:14:50;99585.41;;;12.17;63.93
63194;BME280;49289;51.670;5.624;2023-01-09T01:16:37;99597.64;;;12.66;63.18
63194;BME280;49289;51.670;5.624;2023-01-09T01:18:25;99603.45;;;12.52;62.52
63194;BME280;49289;51.670;5.624;2023-01-09T01:20:17;99595.86;;;12.69;62.48
63194;BME280;49289;51.670;5.624;2023-01-09T01:22:03;99601.05;;;12.18;63.99
63194;BME280;49289;51.670;5.624;2023-01-09T01:23:50;99585.86;;;12.54;63.01
63194;BME280;49289;51.670;5.624;2023-01-09T01:25:37;99574.79;;;12.50;62.99
63194;BME280;49289;51.670;5.624;2023-01-09T01:27:24;99601.92;;;12.49;62.69
63194;BME280;49289;51.670;5.624;2023-01-09T01:29:11;99595.48;;;12.73;61.92
63194;BME280;49289;51.670;5.624;2023-01-09T01:30:58;99584.16;;;12.32;63.28
63194;BME280;49289;51.670;5.624;2023-01-09T01:32:45;99588.84;;;11.94;63.86
63194;BME280;49289;51.670;5.624;2023-01-09T01:34:32;99587.25;;;11.91;64.12
63194;BME280;49289;51.670;5.624;2023-01-09T01:36:21;99598.01;;;12.28;63.77
63194;BME280;49289;51.670;5.624;2023-01-09T01:38:09;99584.66;;;12.39;63.15
63194;BME280;49289;51.670;5.624;2023-01-09T01:39:57;99602.23;;;12.02;63.85
63194;BME280;49289;51.670;5.624;2023-01-09T01:41:45;99601.00;;;11.46;65.50
63194;BME280;49289;51.670;5.624;2023-01-09T01:43:46;99583.25;;;12.09;63.75
63194;BME280;49289;51.670;5.624;2023-01-09T01:45:20;99587.67;;;12.37;62.75
63194;BME280;49289;51.670;5.624;2023-01-09T01:47:07;99581.16;;;12.73;61.64
63194;BME280;49289;51.670;5.624;2023-01-09T01:48:56;99582.22;;;12.60;61.84
63194;BME280;49289;51.670;5.624;2023-01-09T01:50:45;99604.55;;;11.76;63.85
63194;BME280;49289;51.670;5.624;2023-01-09T01:52:32;99585.56;;;11.82;63.75
63194;BME280;49289;51.670;5.624;2023-01-09T01:54:20;99594.53;;;11.83;64.00
63194;BME280;49289;51.670;5.624;2023-01-09T01:56:09;99598.75;;;12.21;62.70
63194;BME280;49289;51.670;5.624;2023-01-09T01:57:57;99602.00;;;11.94;63.55
63194;BME280;49289;51.670;5.624;2023-01-09T01:59:45;99600.74;;;12.13;62.91
63194;BME280;49289;51.670;5.624;2023-01-09T02:01:33;99590.89;;;12.24;62.66
63194;BME280;49289;51.670;5.624;2023-01-09T02:03:22;99582.81;;;11.97;63.04
63194;BME280;49289;51.670;5.624;2023-01-09T02:05:08;99609.17;;;12.26;62.32
63194;BME280;49289;51.670;5.624;2023-01-09T02:06:55;99593.12;;;12.25;62.40
63194;BME280;49289;51.670;5.624;2023-01-09T02:08:43;99610.67;;;12.41;62.13
63194;BME280;49289;51.670;5.624;2023-01-09T02:10:31;99592.68;;;11.86;63.39
63194;BME280;49289;51.670;5.624;2023-01-09T02:12:26;99622.48;;;12.16;63.23
63194;BME280;49289;51.670;5.624;2023-01-09T02:14:13;99606.53;;;11.95;63.40
63194;BME280;49289;51.670;5.624;2023-01-09T02:16:06;99623.69;;;11.30;65.18
63194;BME280;49289;51.670;5.624;2023-01-09T02:18:14;99624.95;;;11.54;65.06
63194;BME280;49289;51.670;5.624;2023-01-09T02:20:32;99603.09;;;12.11;62.88
63194;BME280;49289;51.670;5.624;2023-01-09T02:22:20;99623.52;;;11.52;64.40
63194;BME280;49289;51.670;5.624;2023-01-09T02:24:15;99623.06;;;11.41;64.74
63194;BME280;49289;51.670;5.624;2023-01-09T02:26:11;99620.59;;;11.31;65.12
63194;BME280;49289;51.670;5.624;2023-01-09T02:28:27;99616.75;;;11.63;63.84
63194;BME280;49289;51.670;5.624;2023-01-09T02:30:30;99587.05;;;11.80;63.73
63194;BME280;49289;51.670;5.624;2023-01-09T02:32:20;99612.70;;;11.81;63.25
63194;BME280;49289;51.670;5.624;2023-01-09T02:34:11;99625.48;;;11.87;63.67
63194;BME280;49289;51.670;5.624;2023-01-09T02:36:06;99620.58;;;11.71;63.98
63194;BME280;49289;51.670;5.624;2023-01-09T02:37:54;99610.31;;;11.77;63.37
63194;BME280;49289;51.670;5.624;2023-01-09T02:39:42;99604.11;;;11.98;63.23
63194;BME280;49289;51.670;5.624;2023-01-09T02:41:31;99635.22;;;12.00;62.65
63194;BME280;49289;51.670;5.624;2023-01-09T02:43:17;99631.56;;;12.12;62.84
63194;BME280;49289;51.670;5.624;2023-01-09T02:45:06;99613.63;;;11.78;62.97
63194;BME280;49289;51.670;5.624;2023-01-09T02:47:05;99629.11;;;12.13;62.43
63194;BME280;49289;51.670;5.624;2023-01-09T02:48:52;99624.93;;;12.02;62.98
63194;BME280;49289;51.670;5.624;2023-01-09T02:50:48;99624.16;;;11.37;63.91
63194;BME280;49289;51.670;5.624;2023-01-09T02:52:34;99600.72;;;11.73;63.34
63194;BME280;49289;51.670;5.624;2023-01-09T02:54:26;99600.51;;;12.20;61.94
63194;BME280;49289;51.670;5.624;2023-01-09T02:58:35;99593.02;;;11.93;62.11
63194;BME280;49289;51.670;5.624;2023-01-09T03:00:24;99605.22;;;11.80;62.77
63194;BME280;49289;51.670;5.624;2023-01-09T03:02:14;99621.99;;;11.36;64.35
63194;BME280;49289;51.670;5.624;2023-01-09T03:04:01;99623.56;;;11.90;62.85
63194;BME280;49289;51.670;5.624;2023-01-09T03:05:50;99617.38;;;12.00;62.51
63194;BME280;49289;51.670;5.624;2023-01-09T03:07:36;99608.27;;;12.04;62.06
63194;BME280;49289;51.670;5.624;2023-01-09T03:09:24;99606.80;;;11.67;63.38
63194;BME280;49289;51.670;5.624;2023-01-09T03:11:11;99588.58;;;11.98;62.24
63194;BME280;49289;51.670;5.624;2023-01-09T03:12:58;99587.43;;;11.92;62.33
63194;BME280;49289;51.670;5.624;2023-01-09T03:14:47;99600.58;;;11.98;62.37
63194;BME280;49289;51.670;5.624;2023-01-09T03:16:34;99605.58;;;12.28;61.84
63194;BME280;49289;51.670;5.624;2023-01-09T03:18:21;99604.56;;;12.10;61.62
63194;BME280;49289;51.670;5.624;2023-01-09T03:20:07;99583.91;;;11.99;62.03
63194;BME280;49289;51.670;5.624;2023-01-09T03:21:55;99588.23;;;11.97;62.06
63194;BME280;49289;51.670;5.624;2023-01-09T03:23:59;99579.23;;;11.56;63.04
63194;BME280;49289;51.670;5.624;2023-01-09T03:25:43;99590.17;;;12.00;62.35
63194;BME280;49289;51.670;5.624;2023-01-09T03:27:30;99604.30;;;11.79;62.56
63194;BME280;49289;51.670;5.624;2023-01-09T03:29:17;99603.88;;;11.93;62.63
63194;BME280;49289;51.670;5.624;2023-01-09T03:31:04;99601.98;;;11.75;63.16
63194;BME280;49289;51.670;5.624;2023-01-09T03:32:53;99589.51;;;11.70;62.86
63194;BME280;49289;51.670;5.624;2023-01-09T03:34:41;99606.50;;;12.02;62.21
63194;BME280;49289;51.670;5.624;2023-01-09T03:36:29;99589.80;;;11.91;62.38
63194;BME280;49289;51.670;5.624;2023-01-09T03:38:17;99611.06;;;12.04;61.63
63194;BME280;49289;51.670;5.624;2023-01-09T03:40:06;99607.85;;;12.01;61.82
63194;BME280;49289;51.670;5.624;2023-01-09T03:41:54;99592.02;;;11.63;62.04
63194;BME280;49289;51.670;5.624;2023-01-09T03:43:42;99596.30;;;11.49;62.72
63194;BME280;49289;51.670;5.624;2023-01-09T03:45:30;99596.85;;;11.67;62.43
63194;BME280;49289;51.670;5.624;2023-01-09T03:47:17;99600.02;;;11.79;61.90
63194;BME280;49289;51.670;5.624;2023-01-09T03:49:04;99597.08;;;11.76;61.66
63194;BME280;49289;51.670;5.624;2023-01-09T03:50:52;99601.53;;;11.90;62.10
63194;BME280;49289;51.670;5.624;2023-01-09T03:52:39;99613.28;;;12.17;61.08
63194;BME280;49289;51.670;5.624;2023-01-09T03:54:27;99618.06;;;11.91;61.89
63194;BME280;49289;51.670;5.624;2023-01-09T03:56:16;99612.13;;;11.95;61.06
63194;BME280;49289;51.670;5.624;2023-01-09T03:58:04;99590.01;;;11.95;61.33
63194;BME280;49289;51.670;5.624;2023-01-09T03:59:51;99587.07;;;11.81;61.41
63194;BME280;49289;51.670;5.624;2023-01-09T04:01:38;99595.20;;;11.78;61.50
63194;BME280;49289;51.670;5.624;2023-01-09T04:03:25;99589.20;;;11.81;61.47
63194;BME280;49289;51.670;5.624;2023-01-09T04:05:13;99605.83;;;11.68;62.12
63194;BME280;49289;51.670;5.624;2023-01-09T04:07:01;99594.15;;;11.68;61.67
63194;BME280;49289;51.670;5.624;2023-01-09T04:08:49;99587.48;;;11.78;61.77
63194;BME280;49289;51.670;5.624;2023-01-09T04:10:37;99601.97;;;11.60;62.27
63194;BME280;49289;51.670;5.624;2023-01-09T04:12:24;99607.97;;;11.74;62.66
63194;BME280;49289;51.670;5.624;2023-01-09T04:14:11;99591.95;;;11.55;62.83
63194;BME280;49289;51.670;5.624;2023-01-09T04:15:58;99608.89;;;12.02;61.99
63194;BME280;49289;51.670;5.624;2023-01-09T04:17:45;99591.86;;;11.73;62.20
63194;BME280;49289;51.670;5.624;2023-01-09T04:19:32;99604.06;;;11.66;62.31
63194;BME280;49289;51.670;5.624;2023-01-09T04:21:19;99611.10;;;11.69;62.71
63194;BME280;49289;51.670;5.624;2023-01-09T04:24:05;99607.75;;;11.76;62.13
63194;BME280;49289;51.670;5.624;2023-01-09T04:25:52;99607.89;;;11.55;62.86
63194;BME280;49289;51.670;5.624;2023-01-09T04:27:39;99594.79;;;11.61;62.45
63194;BME280;49289;51.670;5.624;2023-01-09T04:29:26;99595.96;;;11.85;61.52
63194;BME280;49289;51.670;5.624;2023-01-09T04:31:13;99596.12;;;11.26;62.57
63194;BME280;49289;51.670;5.624;2023-01-09T04:33:00;99583.64;;;11.31;63.03
63194;BME280;49289;51.670;5.624;2023-01-09T04:34:47;99593.83;;;11.19;63.82
63194;BME280;49289;51.670;5.624;2023-01-09T04:36:34;99600.31;;;11.13;63.55
63194;BME280;49289;51.670;5.624;2023-01-09T04:38:22;99623.22;;;11.77;62.27
63194;BME280;49289;51.670;5.624;2023-01-09T04:40:12;99597.68;;;11.31;63.09
63194;BME280;49289;51.670;5.624;2023-01-09T04:42:00;99619.80;;;11.37;63.73
63194;BME280;49289;51.670;5.624;2023-01-09T04:43:48;99622.27;;;11.68;62.74
63194;BME280;49289;51.670;5.624;2023-01-09T04:45:36;99610.80;;;11.79;62.40
63194;BME280;49289;51.670;5.624;2023-01-09T04:47:23;99626.09;;;12.03;62.04
63194;BME280;49289;51.670;5.624;2023-01-09T04:49:10;99612.77;;;11.71;62.75
63194;BME280;49289;51.670;5.624;2023-01-09T04:50:57;99615.36;;;11.97;62.04
63194;BME280;49289;51.670;5.624;2023-01-09T04:52:44;99624.24;;;12.34;61.51
63194;BME280;49289;51.670;5.624;2023-01-09T04:54:31;99630.77;;;12.21;61.53
63194;BME280;49289;51.670;5.624;2023-01-09T04:56:18;99604.53;;;12.08;61.84
63194;BME280;49289;51.670;5.624;2023-01-09T04:58:07;99617.00;;;12.12;61.96
63194;BME280;49289;51.670;5.624;2023-01-09T04:59:55;99624.88;;;12.38;61.27
63194;BME280;49289;51.670;5.624;2023-01-09T05:01:43;99602.34;;;11.52;63.20
63194;BME280;49289;51.670;5.624;2023-01-09T05:03:31;99608.19;;;12.05;61.95
63194;BME280;49289;51.670;5.624;2023-01-09T05:05:06;99607.61;;;12.11;61.94
63194;BME280;49289;51.670;5.624;2023-01-09T05:06:53;99624.38;;;12.10;62.07
63194;BME280;49289;51.670;5.624;2023-01-09T05:08:40;99623.92;;;12.34;61.76
63194;BME280;49289;51.670;5.624;2023-01-09T05:10:27;99613.83;;;12.37;61.08
63194;BME280;49289;51.670;5.624;2023-01-09T05:12:15;99604.69;;;12.29;61.51
63194;BME280;49289;51.670;5.624;2023-01-09T05:14:04;99602.64;;;12.13;61.10
63194;BME280;49289;51.670;5.624;2023-01-09T05:15:51;99619.33;;;12.36;61.56
63194;BME280;49289;51.670;5.624;2023-01-09T05:17:38;99624.66;;;12.22;61.08
63194;BME280;49289;51.670;5.624;2023-01-09T05:19:25;99620.48;;;12.53;61.31
63194;BME280;49289;51.670;5.624;2023-01-09T05:21:12;99610.33;;;11.78;62.70
63194;BME280;49289;51.670;5.624;2023-01-09T05:23:00;99626.14;;;12.44;61.48
63194;BME280;49289;51.670;5.624;2023-01-09T05:24:49;99610.84;;;12.41;60.89
63194;BME280;49289;51.670;5.624;2023-01-09T05:26:37;99614.55;;;12.53;61.21
63194;BME280;49289;51.670;5.624;2023-01-09T05:28:25;99610.36;;;12.63;60.74
63194;BME280;49289;51.670;5.624;2023-01-09T05:30:13;99618.62;;;12.66;60.54
63194;BME280;49289;51.670;5.624;2023-01-09T05:32:00;99617.91;;;12.22;61.52
63194;BME280;49289;51.670;5.624;2023-01-09T05:33:47;99598.67;;;12.41;60.99
63194;BME280;49289;51.670;5.624;2023-01-09T05:35:34;99605.70;;;12.41;60.97
63194;BME280;49289;51.670;5.624;2023-01-09T05:37:21;99607.02;;;12.38;60.72
63194;BME280;49289;51.670;5.624;2023-01-09T05:39:08;99605.11;;;12.65;60.49
63194;BME280;49289;51.670;5.624;2023-01-09T05:40:55;99602.23;;;12.65;60.25
63194;BME280;49289;51.670;5.624;2023-01-09T05:42:42;99591.52;;;12.22;61.28
63194;BME280;49289;51.670;5.624;2023-01-09T05:44:30;99587.11;;;11.93;61.71
63194;BME280;49289;51.670;5.624;2023-01-09T05:46:19;99604.31;;;12.49;61.30
63194;BME280;49289;51.670;5.624;2023-01-09T05:48:07;99592.98;;;12.41;60.67
63194;BME280;49289;51.670;5.624;2023-01-09T05:49:55;99605.25;;;12.12;61.82
63194;BME280;49289;51.670;5.624;2023-01-09T05:51:43;99591.49;;;12.27;61.53
63194;BME280;49289;51.670;5.624;2023-01-09T05:53:31;99599.81;;;12.34;61.19
63194;BME280;49289;51.670;5.624;2023-01-09T05:55:19;99581.03;;;12.21;61.30
63194;BME280;49289;51.670;5.624;2023-01-09T05:57:07;99576.84;;;12.43;60.53
63194;BME280;49289;51.670;5.624;2023-01-09T05:58:56;99592.16;;;12.52;60.88
63194;BME280;49289;51.670;5.624;2023-01-09T06:00:44;99590.91;;;12.61;60.81
63194;BME280;49289;51.670;5.624;2023-01-09T06:02:32;99571.53;;;12.80;59.92
63194;BME280;49289;51.670;5.624;2023-01-09T06:04:19;99596.13;;;12.72;60.38
63194;BME280;49289;51.670;5.624;2023-01-09T06:06:06;99580.59;;;12.36;61.07
63194;BME280;49289;51.670;5.624;2023-01-09T06:07:53;99594.66;;;12.60;60.65
63194;BME280;49289;51.670;5.624;2023-01-09T06:09:40;99583.67;;;12.26;60.83
63194;BME280;49289;51.670;5.624;2023-01-09T06:11:27;99586.81;;;12.34;61.18
63194;BME280;49289;51.670;5.624;2023-01-09T06:13:14;99582.02;;;12.87;59.86
63194;BME280;49289;51.670;5.624;2023-01-09T06:15:01;99571.98;;;12.21;61.39
63194;BME280;49289;51.670;5.624;2023-01-09T06:16:48;99584.98;;;12.88;60.38
63194;BME280;49289;51.670;5.624;2023-01-09T06:18:35;99572.67;;;12.60;60.81
63194;BME280;49289;51.670;5.624;2023-01-09T06:20:24;99568.83;;;12.86;60.07
63194;BME280;49289;51.670;5.624;2023-01-09T06:22:12;99581.30;;;12.99;59.87
63194;BME280;49289;51.670;5.624;2023-01-09T06:24:00;99593.34;;;12.30;61.93
63194;BME280;49289;51.670;5.624;2023-01-09T06:25:48;99571.44;;;12.34;61.60
63194;BME280;49289;51.670;5.624;2023-01-09T06:27:35;99588.36;;;12.50;61.82
63194;BME280;49289;51.670;5.624;2023-01-09T06:29:22;99570.27;;;12.51;61.39
63194;BME280;49289;51.670;5.624;2023-01-09T06:31:09;99589.64;;;13.06;60.45
63194;BME280;49289;51.670;5.624;2023-01-09T06:32:59;99589.22;;;13.05;60.30
63194;BME280;49289;51.670;5.624;2023-01-09T06:34:47;99591.60;;;13.05;60.43
63194;BME280;49289;51.670;5.624;2023-01-09T06:36:34;99586.80;;;12.58;61.58
63194;BME280;49289;51.670;5.624;2023-01-09T06:38:21;99593.63;;;12.11;63.16
63194;BME280;49289;51.670;5.624;2023-01-09T06:40:09;99592.31;;;12.89;61.19
63194;BME280;49289;51.670;5.624;2023-01-09T06:41:57;99593.47;;;12.97;61.06
63194;BME280;49289;51.670;5.624;2023-01-09T06:43:45;99575.27;;;12.75;61.22
63194;BME280;49289;51.670;5.624;2023-01-09T06:45:32;99574.92;;;12.55;61.60
63194;BME280;49289;51.670;5.624;2023-01-09T06:47:21;99588.07;;;12.92;61.18
63194;BME280;49289;51.670;5.624;2023-01-09T06:49:09;99571.34;;;12.90;60.83
63194;BME280;49289;51.670;5.624;2023-01-09T06:50:57;99587.66;;;13.00;61.18
63194;BME280;49289;51.670;5.624;2023-01-09T06:52:45;99561.39;;;12.71;60.89
63194;BME280;49289;51.670;5.624;2023-01-09T06:54:33;99572.38;;;12.19;62.78
63194;BME280;49289;51.670;5.624;2023-01-09T06:56:20;99586.05;;;12.68;62.01
63194;BME280;49289;51.670;5.624;2023-01-09T06:58:07;99581.89;;;12.92;61.16
63194;BME280;49289;51.670;5.624;2023-01-09T06:59:54;99568.64;;;12.92;60.92
63194;BME280;49289;51.670;5.624;2023-01-09T07:01:41;99559.81;;;12.91;60.72
63194;BME280;49289;51.670;5.624;2023-01-09T07:03:29;99580.72;;;12.77;61.02
63194;BME280;49289;51.670;5.624;2023-01-09T07:05:19;99582.70;;;12.78;61.07
63194;BME280;49289;51.670;5.624;2023-01-09T07:07:06;99588.13;;;13.12;60.54
63194;BME280;49289;51.670;5.624;2023-01-09T07:08:53;99575.50;;;12.74;60.87
63194;BME280;49289;51.670;5.624;2023-01-09T07:10:40;99593.54;;;12.57;62.28
63194;BME280;49289;51.670;5.624;2023-01-09T07:12:27;99594.74;;;11.98;63.91
63194;BME280;49289;51.670;5.624;2023-01-09T07:14:14;99588.27;;;12.09;63.85
63194;BME280;49289;51.670;5.624;2023-01-09T07:16:01;99574.48;;;11.83;64.85
63194;BME280;49289;51.670;5.624;2023-01-09T07:17:49;99589.28;;;12.27;63.71
63194;BME280;49289;51.670;5.624;2023-01-09T07:19:37;99585.14;;;11.82;65.14
63194;BME280;49289;51.670;5.624;2023-01-09T07:21:26;99602.30;;;12.13;64.61
63194;BME280;49289;51.670;5.624;2023-01-09T07:23:15;99586.22;;;12.00;64.81
63194;BME280;49289;51.670;5.624;2023-01-09T07:25:03;99588.38;;;11.84;65.29
63194;BME280;49289;51.670;5.624;2023-01-09T07:26:51;99608.32;;;12.30;64.37
63194;BME280;49289;51.670;5.624;2023-01-09T07:28:39;99598.53;;;12.73;63.33
63194;BME280;49289;51.670;5.624;2023-01-09T07:30:27;99596.37;;;11.97;63.88
63194;BME280;49289;51.670;5.624;2023-01-09T07:32:16;99606.20;;;12.00;65.19
63194;BME280;49289;51.670;5.624;2023-01-09T07:34:03;99614.41;;;12.03;65.19
63194;BME280;49289;51.670;5.624;2023-01-09T07:35:51;99605.57;;;11.41;66.40
63194;BME280;49289;51.670;5.624;2023-01-09T07:37:40;99622.17;;;11.73;66.13
63194;BME280;49289;51.670;5.624;2023-01-09T07:39:28;99632.03;;;11.73;66.79
63194;BME280;49289;51.670;5.624;2023-01-09T07:41:16;99632.44;;;11.32;66.69
63194;BME280;49289;51.670;5.624;2023-01-09T07:43:03;99617.63;;;11.89;66.02
63194;BME280;49289;51.670;5.624;2023-01-09T07:44:51;99637.74;;;11.39;66.62
63194;BME280;49289;51.670;5.624;2023-01-09T07:46:40;99623.01;;;11.60;66.59
63194;BME280;49289;51.670;5.624;2023-01-09T07:48:28;99611.87;;;11.61;66.16
63194;BME280;49289;51.670;5.624;2023-01-09T07:50:16;99621.39;;;11.47;66.97
63194;BME280;49289;51.670;5.624;2023-01-09T07:52:03;99644.18;;;11.32;67.26
63194;BME280;49289;51.670;5.624;2023-01-09T07:53:51;99630.84;;;11.30;67.24
63194;BME280;49289;51.670;5.624;2023-01-09T07:55:38;99648.05;;;11.62;66.66
63194;BME280;49289;51.670;5.624;2023-01-09T07:57:25;99635.37;;;11.80;65.97
63194;BME280;49289;51.670;5.624;2023-01-09T07:59:12;99640.38;;;11.35;67.29
63194;BME280;49289;51.670;5.624;2023-01-09T08:00:59;99661.72;;;11.30;66.89
63194;BME280;49289;51.670;5.624;2023-01-09T08:02:46;99667.60;;;11.55;66.97
63194;BME280;49289;51.670;5.624;2023-01-09T08:04:33;99667.54;;;10.78;69.34
63194;BME280;49289;51.670;5.624;2023-01-09T08:06:20;99668.77;;;11.34;68.30
63194;BME280;49289;51.670;5.624;2023-01-09T08:08:08;99669.10;;;11.85;66.86
63194;BME280;49289;51.670;5.624;2023-01-09T08:09:56;99662.20;;;11.74;66.24
63194;BME280;49289;51.670;5.624;2023-01-09T08:11:45;99672.60;;;11.88;66.44
63194;BME280;49289;51.670;5.624;2023-01-09T08:13:33;99674.90;;;11.83;66.61
63194;BME280;49289;51.670;5.624;2023-01-09T08:15:21;99667.80;;;11.18;67.50
63194;BME280;49289;51.670;5.624;2023-01-09T08:17:08;99690.84;;;11.33;67.69
63194;BME280;49289;51.670;5.624;2023-01-09T08:18:55;99690.23;;;11.52;67.69
63194;BME280;49289;51.670;5.624;2023-01-09T08:20:42;99680.14;;;11.23;67.88
63194;BME280;49289;51.670;5.624;2023-01-09T08:22:30;99672.73;;;11.74;66.43
63194;BME280;49289;51.670;5.624;2023-01-09T08:24:19;99691.84;;;11.80;66.17
63194;BME280;49289;51.670;5.624;2023-01-09T08:26:06;99696.70;;;11.73;66.82
63194;BME280;49289;51.670;5.624;2023-01-09T08:27:54;99701.75;;;12.16;65.07
63194;BME280;49289;51.670;5.624;2023-01-09T08:29:42;99687.75;;;12.03;65.72
63194;BME280;49289;51.670;5.624;2023-01-09T08:31:30;99688.72;;;11.78;66.23
63194;BME280;49289;51.670;5.624;2023-01-09T08:33:19;99711.16;;;11.63;66.80
63194;BME280;49289;51.670;5.624;2023-01-09T08:35:07;99707.39;;;11.61;67.61
63194;BME280;49289;51.670;5.624;2023-01-09T08:36:55;99713.28;;;11.46;67.60
63194;BME280;49289;51.670;5.624;2023-01-09T08:38:42;99720.88;;;11.52;67.58
63194;BME280;49289;51.670;5.624;2023-01-09T08:40:29;99706.15;;;11.60;67.12
63194;BME280;49289;51.670;5.624;2023-01-09T08:42:17;99725.66;;;11.70;67.22
63194;BME280;49289;51.670;5.624;2023-01-09T08:44:05;99711.73;;;11.73;66.94
63194;BME280;49289;51.670;5.624;2023-01-09T08:45:54;99727.84;;;12.07;66.21
63194;BME280;49289;51.670;5.624;2023-01-09T08:47:42;99735.52;;;12.14;65.90
63194;BME280;49289;51.670;5.624;2023-01-09T08:49:30;99721.08;;;11.79;66.76
63194;BME280;49289;51.670;5.624;2023-01-09T08:51:18;99719.50;;;11.96;66.87
63194;BME280;49289;51.670;5.624;2023-01-09T08:53:06;99732.80;;;12.00;66.32
63194;BME280;49289;51.670;5.624;2023-01-09T08:54:54;99735.56;;;11.55;67.72
63194;BME280;49289;51.670;5.624;2023-01-09T08:56:42;99751.34;;;11.40;67.77
63194;BME280;49289;51.670;5.624;2023-01-09T08:58:30;99750.91;;;11.30;68.35
63194;BME280;49289;51.670;5.624;2023-01-09T09:00:19;99777.64;;;11.56;68.98
63194;BME280;49289;51.670;5.624;2023-01-09T09:02:07;99755.92;;;11.55;68.07
63194;BME280;49289;51.670;5.624;2023-01-09T09:03:55;99780.99;;;11.79;68.41
63194;BME280;49289;51.670;5.624;2023-01-09T09:05:43;99788.91;;;11.88;67.72
63194;BME280;49289;51.670;5.624;2023-01-09T09:07:31;99779.87;;;11.30;69.46
63194;BME280;49289;51.670;5.624;2023-01-09T09:09:19;99780.27;;;11.52;69.14
63194;BME280;49289;51.670;5.624;2023-01-09T09:11:06;99775.84;;;11.69;68.68
63194;BME280;49289;51.670;5.624;2023-01-09T09:12:54;99783.61;;;11.55;69.28
63194;BME280;49289;51.670;5.624;2023-01-09T09:14:40;99786.52;;;11.29;71.16
63194;BME280;49289;51.670;5.624;2023-01-09T09:16:27;99803.80;;;12.24;70.00
63194;BME280;49289;51.670;5.624;2023-01-09T09:18:14;99790.28;;;11.91;68.25
63194;BME280;49289;51.670;5.624;2023-01-09T09:20:01;99809.64;;;12.21;67.80
63194;BME280;49289;51.670;5.624;2023-01-09T09:21:48;99808.95;;;12.45;67.11
63194;BME280;49289;51.670;5.624;2023-01-09T09:23:35;99808.80;;;12.56;66.58
63194;BME280;49289;51.670;5.624;2023-01-09T09:25:22;99805.06;;;12.49;66.82
63194;BME280;49289;51.670;5.624;2023-01-09T09:27:09;99819.14;;;11.77;68.55
63194;BME280;49289;51.670;5.624;2023-01-09T09:28:57;99815.72;;;11.89;68.62
63194;BME280;49289;51.670;5.624;2023-01-09T09:30:45;99812.78;;;11.76;69.38
63194;BME280;49289;51.670;5.624;2023-01-09T09:32:32;99807.05;;;11.68;69.22
63194;BME280;49289;51.670;5.624;2023-01-09T09:34:19;99798.22;;;11.85;68.92
63194;BME280;49289;51.670;5.624;2023-01-09T09:36:06;99801.30;;;12.18;68.24